Time;durP1;ratioP1;P1;durP2;ratioP2;P2;SDS_P1;SDS_P2;PMS_P1;PMS_P2;Temp;Humidity;BMP_temperature;BMP_pressure;BME280_temperature;BME280_humidity;BME280_pressure;Samples;Min_cycle;Max_cycle;Signal;HPM_P1;HPM_P2
2022/08/08 00:00:56;;;;;;;;;;;;;;;22.09;51.21;101862.19;5002584;28;4142;-62
2022/08/08 00:03:46;;;;;;;;;;;;;;;22.09;51.18;101865.06;4998839;28;5436;-62
2022/08/08 00:06:22;;;;;;;;;;;;;;;22.10;51.05;101865.81;4997459;28;5265;-63
2022/08/08 00:09:11;;;;;;;;;;;;;;;22.09;51.10;101859.28;4998282;28;4415;-63
2022/08/08 00:11:50;;;;;;;;;;;;;;;22.09;51.54;101867.94;4997772;28;4206;-62
2022/08/08 00:14:44;;;;;;;;;;;;;;;22.09;51.33;101859.28;4997504;28;4155;-62
2022/08/08 00:17:43;;;;;;;;;;;;;;;22.09;51.01;101862.19;4995268;28;5072;-63
2022/08/08 00:20:37;;;;;;;;;;;;;;;22.09;51.34;101858.56;4997784;28;4163;-62
2022/08/08 00:23:23;;;;;;;;;;;;;;;22.10;51.48;101865.81;4998740;28;5236;-62
2022/08/08 00:26:09;;;;;;;;;;;;;;;22.09;51.11;101859.28;4997562;28;4859;-62
2022/08/08 00:28:41;;;;;;;;;;;;;;;22.09;51.39;101865.06;4998502;28;4092;-63
2022/08/08 00:31:20;;;;;;;;;;;;;;;22.10;51.22;101866.56;4996016;28;4239;-60
2022/08/08 00:36:57;;;;;;;;;;;;;;;22.09;51.23;101867.22;4997723;28;4336;-60
2022/08/08 00:39:35;;;;;;;;;;;;;;;22.08;51.38;101866.47;4981655;28;4215;-61
2022/08/08 00:42:40;;;;;;;;;;;;;;;22.08;51.12;101869.34;4992278;28;4197;-60
2022/08/08 00:45:30;;;;;;;;;;;;;;;22.09;51.24;101864.31;4995304;28;4254;-61
2022/08/08 00:48:14;;;;;;;;;;;;;;;22.08;51.10;101857.81;4987420;28;4134;-60
2022/08/08 00:51:08;;;;;;;;;;;;;;;22.09;51.33;101870.84;4997870;28;4225;-60
2022/08/08 00:53:41;;;;;;;;;;;;;;;22.08;51.21;101869.34;4995508;28;4301;-60
2022/08/08 00:56:37;;;;;;;;;;;;;;;22.09;51.30;101867.22;4990277;28;4897;-60
2022/08/08 00:59:30;;;;;;;;;;;;;;;22.09;51.07;101865.06;4979974;28;4263;-60
2022/08/08 01:02:14;;;;;;;;;;;;;;;22.09;50.99;101864.31;4994812;28;4227;-60
2022/08/08 01:05:05;;;;;;;;;;;;;;;22.08;51.33;101863.59;4996304;28;4102;-60
2022/08/08 01:07:49;;;;;;;;;;;;;;;22.09;51.13;101867.94;4985214;28;4056;-60
2022/08/08 01:10:45;;;;;;;;;;;;;;;22.09;51.54;101864.31;4984543;28;4203;-60
2022/08/08 01:13:19;;;;;;;;;;;;;;;22.08;51.29;101863.59;5011814;28;5095;-60
2022/08/08 01:16:25;;;;;;;;;;;;;;;22.08;51.48;101863.59;4997309;28;4229;-60
2022/08/08 01:19:08;;;;;;;;;;;;;;;22.08;50.96;101857.81;4995458;28;4373;-61
2022/08/08 01:21:58;;;;;;;;;;;;;;;22.09;51.16;101861.44;4982850;28;4502;-60
2022/08/08 01:25:08;;;;;;;;;;;;;;;22.07;51.04;101867.84;4987400;28;4505;-61
2022/08/08 01:27:49;;;;;;;;;;;;;;;22.08;50.98;101869.34;4969748;28;4111;-60
2022/08/08 01:30:25;;;;;;;;;;;;;;;22.07;51.16;101862.06;4976442;28;4228;-61
2022/08/08 01:33:13;;;;;;;;;;;;;;;22.07;51.29;101862.06;4998195;28;4196;-60
2022/08/08 01:35:52;;;;;;;;;;;;;;;22.08;51.12;101857.81;4994895;28;5479;-60
2022/08/08 01:38:40;;;;;;;;;;;;;;;22.07;50.86;101859.19;5003154;28;4183;-60
2022/08/08 01:41:23;;;;;;;;;;;;;;;22.07;51.07;101856.28;4984813;28;4266;-60
2022/08/08 01:44:06;;;;;;;;;;;;;;;22.07;50.93;101862.06;4998865;28;6485;-60
2022/08/08 01:46:50;;;;;;;;;;;;;;;22.07;51.21;101849.78;4999263;28;5312;-60
2022/08/08 01:49:30;;;;;;;;;;;;;;;22.06;50.99;101854.81;4988613;28;4370;-61
2022/08/08 01:52:28;;;;;;;;;;;;;;;22.07;50.89;101852.66;4991798;28;4070;-60
2022/08/08 01:55:35;;;;;;;;;;;;;;;22.07;50.84;101836.09;4985478;28;4200;-61
2022/08/08 01:58:43;;;;;;;;;;;;;;;22.07;51.08;101841.88;4986185;28;4293;-61
2022/08/08 02:01:38;;;;;;;;;;;;;;;22.07;50.94;101841.88;4991004;28;4167;-61
2022/08/08 02:04:42;;;;;;;;;;;;;;;22.08;51.07;101833.97;4998100;28;4321;-60
2022/08/08 02:07:39;;;;;;;;;;;;;;;22.06;51.03;101837.50;4999542;28;4155;-60
2022/08/08 02:10:17;;;;;;;;;;;;;;;22.07;51.01;101835.38;4976575;28;4217;-60
2022/08/08 02:13:20;;;;;;;;;;;;;;;22.06;50.83;101837.50;4999841;28;4066;-60
2022/08/08 02:16:33;;;;;;;;;;;;;;;22.06;51.04;101834.63;4998690;28;4337;-60
2022/08/08 02:18:59;;;;;;;;;;;;;;;22.06;50.98;101828.84;4982875;28;4504;-60
2022/08/08 02:24:45;;;;;;;;;;;;;;;22.07;51.08;101826.72;4998505;28;4154;-60
2022/08/08 02:27:22;;;;;;;;;;;;;;;22.07;50.98;101839.00;4983155;28;4212;-61
2022/08/08 02:29:51;;;;;;;;;;;;;;;22.07;51.09;101844.75;5001313;28;4372;-60
2022/08/08 02:32:32;;;;;;;;;;;;;;;22.07;51.22;101844.00;4998614;28;4168;-61
2022/08/08 02:35:02;;;;;;;;;;;;;;;22.06;50.84;101849.03;4999468;28;4244;-60
2022/08/08 02:37:48;;;;;;;;;;;;;;;22.07;51.17;101853.41;4996246;28;4200;-60
2022/08/08 02:40:40;;;;;;;;;;;;;;;22.07;51.04;101864.22;4984444;28;4221;-60
2022/08/08 02:43:29;;;;;;;;;;;;;;;22.06;51.37;101860.59;5000102;28;4213;-61
2022/08/08 02:46:34;;;;;;;;;;;;;;;22.06;51.38;101860.59;5000061;28;5251;-60
2022/08/08 02:49:24;;;;;;;;;;;;;;;22.06;51.35;101854.81;5002674;28;4325;-60
2022/08/08 02:52:17;;;;;;;;;;;;;;;22.06;51.39;101854.03;5003321;28;5508;-60
2022/08/08 02:55:20;;;;;;;;;;;;;;;22.06;51.18;101860.59;4989485;28;5087;-60
2022/08/08 02:58:09;;;;;;;;;;;;;;;22.07;51.16;101862.06;5013449;28;5578;-60
2022/08/08 03:00:49;;;;;;;;;;;;;;;22.07;51.11;101862.06;4955395;28;6652;-60
2022/08/08 03:03:30;;;;;;;;;;;;;;;22.06;51.37;101866.34;4989378;28;4218;-60
2022/08/08 03:06:35;;;;;;;;;;;;;;;22.06;51.26;101863.47;4997088;28;4151;-62
2022/08/08 03:09:35;;;;;;;;;;;;;;;22.04;51.73;101863.34;5000193;28;4631;-63
2022/08/08 03:12:12;;;;;;;;;;;;;;;22.01;51.97;101861.72;4988789;28;4285;-62
2022/08/08 03:14:50;;;;;;;;;;;;;;;21.98;51.70;101865.16;5000036;28;4183;-62
2022/08/08 03:17:55;;;;;;;;;;;;;;;21.97;51.75;101864.41;5015037;28;5224;-62
2022/08/08 03:20:48;;;;;;;;;;;;;;;21.95;51.45;101867.91;4998908;28;4322;-63
2022/08/08 03:23:21;;;;;;;;;;;;;;;21.95;51.18;101872.94;4997948;28;4154;-62
2022/08/08 03:25:49;;;;;;;;;;;;;;;21.95;50.89;101870.06;4998917;28;5239;-62
2022/08/08 03:28:20;;;;;;;;;;;;;;;21.93;50.95;101864.91;5014566;28;4215;-62
2022/08/08 03:30:47;;;;;;;;;;;;;;;21.94;50.68;101862.78;4999766;28;4053;-62
2022/08/08 03:33:34;;;;;;;;;;;;;;;21.93;50.59;101869.94;4999345;28;4149;-63
2022/08/08 03:36:20;;;;;;;;;;;;;;;21.92;50.36;101868.41;4997146;28;4241;-63
2022/08/08 03:38:56;;;;;;;;;;;;;;;21.92;50.24;101871.31;5015645;28;4219;-62
2022/08/08 03:41:41;;;;;;;;;;;;;;;21.90;50.02;101863.31;4989399;28;4181;-63
2022/08/08 03:44:31;;;;;;;;;;;;;;;21.90;50.10;101866.19;5005021;28;4172;-62
2022/08/08 03:47:00;;;;;;;;;;;;;;;21.91;49.72;101869.81;4997406;28;4165;-63
2022/08/08 03:49:46;;;;;;;;;;;;;;;21.90;49.82;101879.88;5013443;28;4229;-62
2022/08/08 03:52:32;;;;;;;;;;;;;;;21.89;49.77;101876.22;5012388;28;4209;-62
2022/08/08 03:55:07;;;;;;;;;;;;;;;21.88;49.44;101871.09;4996415;28;4264;-62
2022/08/08 03:57:37;;;;;;;;;;;;;;;21.88;49.68;101876.88;5013085;28;4306;-62
2022/08/08 04:00:25;;;;;;;;;;;;;;;21.87;49.43;101884.75;4989173;28;5259;-63
2022/08/08 04:03:05;;;;;;;;;;;;;;;21.86;49.35;101882.53;4999980;28;4447;-62
2022/08/08 04:05:37;;;;;;;;;;;;;;;21.85;49.18;101890.44;4996789;28;5381;-62
2022/08/08 04:08:20;;;;;;;;;;;;;;;21.86;48.82;101894.06;5004856;28;4296;-65
2022/08/08 04:11:01;;;;;;;;;;;;;;;21.84;49.13;101885.28;4997917;28;4169;-62
2022/08/08 04:13:36;;;;;;;;;;;;;;;21.84;48.98;101885.28;5012897;28;4142;-63
2022/08/08 04:16:23;;;;;;;;;;;;;;;21.83;48.79;101895.31;4998055;28;5227;-63
2022/08/08 04:19:06;;;;;;;;;;;;;;;21.83;48.73;101895.31;4997762;28;4182;-62
2022/08/08 04:21:54;;;;;;;;;;;;;;;21.82;48.67;101888.78;4997812;28;4070;-60
2022/08/08 04:24:22;;;;;;;;;;;;;;;21.82;48.57;101894.56;4998276;28;4372;-63
2022/08/08 04:26:55;;;;;;;;;;;;;;;21.82;48.55;101893.81;5014329;28;4067;-60
2022/08/08 04:29:25;;;;;;;;;;;;;;;21.81;48.53;101898.84;5014320;28;4270;-60
2022/08/08 04:31:52;;;;;;;;;;;;;;;21.82;48.45;101899.59;4998525;28;5531;-60
2022/08/08 04:34:26;;;;;;;;;;;;;;;21.80;48.39;101894.44;4996865;28;4283;-60
2022/08/08 04:36:57;;;;;;;;;;;;;;;21.81;48.40;101904.59;4995746;28;4230;-60
2022/08/08 04:39:24;;;;;;;;;;;;;;;21.80;48.49;101914.63;4996967;28;5299;-60
2022/08/08 04:42:10;;;;;;;;;;;;;;;21.80;48.48;101905.22;4998750;28;4455;-60
2022/08/08 04:44:42;;;;;;;;;;;;;;;21.80;48.69;101908.13;4998068;28;5471;-60
2022/08/08 04:47:13;;;;;;;;;;;;;;;21.79;48.42;101915.28;4996971;28;4171;-60
2022/08/08 04:49:40;;;;;;;;;;;;;;;21.78;48.57;101916.66;4996714;28;5618;-60
2022/08/08 04:52:29;;;;;;;;;;;;;;;21.79;48.53;101915.28;5000253;28;4298;-60
2022/08/08 04:55:06;;;;;;;;;;;;;;;21.79;48.69;101915.28;5002998;28;4199;-60
2022/08/08 04:57:33;;;;;;;;;;;;;;;21.78;48.50;101916.66;4999063;28;4152;-60
2022/08/08 05:00:02;;;;;;;;;;;;;;;21.78;48.47;101916.66;4999083;28;5252;-60
2022/08/08 05:02:28;;;;;;;;;;;;;;;21.76;48.54;101911.50;4994510;28;4139;-60
2022/08/08 05:04:57;;;;;;;;;;;;;;;21.77;48.57;101921.66;4998754;28;4144;-60
2022/08/08 05:07:26;;;;;;;;;;;;;;;21.77;48.57;101923.81;4995828;28;4238;-60
2022/08/08 05:10:09;;;;;;;;;;;;;;;21.77;48.66;101920.91;4997501;28;4223;-60
2022/08/08 05:12:39;;;;;;;;;;;;;;;21.77;48.68;101915.16;4997374;28;4189;-60
2022/08/08 05:15:25;;;;;;;;;;;;;;;21.75;48.73;101913.66;5013235;28;5258;-59
2022/08/08 05:18:11;;;;;;;;;;;;;;;21.77;48.91;101920.91;4998213;28;4254;-59
2022/08/08 05:20:38;;;;;;;;;;;;;;;21.77;48.65;101920.91;5002619;28;4417;-60
2022/08/08 05:23:18;;;;;;;;;;;;;;;21.77;48.59;101927.44;5016301;28;5384;-60
2022/08/08 05:25:44;;;;;;;;;;;;;;;21.75;48.75;101919.41;4990826;28;4146;-60
2022/08/08 05:28:12;;;;;;;;;;;;;;;21.75;48.77;101910.75;5001409;28;4267;-60
2022/08/08 05:30:40;;;;;;;;;;;;;;;21.76;48.86;101914.38;5007138;28;4137;-60
2022/08/08 05:33:14;;;;;;;;;;;;;;;21.77;49.03;101926.69;4998508;28;4290;-61
2022/08/08 05:35:43;;;;;;;;;;;;;;;21.76;49.04;101917.28;4999025;28;4214;-60
2022/08/08 05:38:13;;;;;;;;;;;;;;;21.75;49.10;101925.19;5000626;28;4091;-60
2022/08/08 05:41:06;;;;;;;;;;;;;;;21.77;48.84;101926.69;5001018;28;4324;-60
2022/08/08 05:43:34;;;;;;;;;;;;;;;21.77;48.85;101929.56;5000874;28;4124;-59
2022/08/08 05:46:21;;;;;;;;;;;;;;;21.77;49.09;101926.69;5001548;28;5512;-61
2022/08/08 05:48:50;;;;;;;;;;;;;;;21.77;49.07;101932.47;5001172;28;4055;-60
2022/08/08 05:51:19;;;;;;;;;;;;;;;21.75;49.37;101925.19;4989401;28;4217;-61
2022/08/08 05:53:49;;;;;;;;;;;;;;;21.77;49.38;101938.22;4988026;28;4083;-60
2022/08/08 05:56:38;;;;;;;;;;;;;;;21.77;49.44;101933.19;4992261;28;4187;-60
2022/08/08 05:59:17;;;;;;;;;;;;;;;21.77;49.21;101926.69;5006312;28;4153;-65
2022/08/08 06:03:08;;;;;;;;;;;;;;;21.78;49.39;101931.06;5000327;28;4112;-60
2022/08/08 06:04:51;;;;;;;;;;;;;;;21.78;49.30;101934.69;5000132;28;4151;-60
2022/08/08 06:07:21;;;;;;;;;;;;;;;21.79;49.12;101935.47;4999342;28;5322;-60
2022/08/08 06:09:48;;;;;;;;;;;;;;;21.80;49.56;101936.94;4989109;28;5563;-60
2022/08/08 06:12:27;;;;;;;;;;;;;;;21.79;49.70;101941.97;4988139;28;4216;-60
2022/08/08 06:14:58;;;;;;;;;;;;;;;21.79;49.63;101936.19;5001359;28;4239;-60
2022/08/08 06:17:24;;;;;;;;;;;;;;;21.79;49.66;101938.34;4997549;28;4194;-61
2022/08/08 06:20:11;;;;;;;;;;;;;;;21.78;49.53;101939.72;4989868;28;4226;-60
2022/08/08 06:22:41;;;;;;;;;;;;;;;21.77;49.83;101938.97;4999171;28;5178;-60
2022/08/08 06:25:16;;;;;;;;;;;;;;;21.77;49.56;101944.72;5006388;28;4189;-61
2022/08/08 06:27:47;;;;;;;;;;;;;;;21.75;49.77;101930.94;5000548;28;4262;-60
2022/08/08 06:30:15;;;;;;;;;;;;;;;21.75;49.79;101942.47;5002289;28;4229;-60
2022/08/08 06:32:55;;;;;;;;;;;;;;;21.76;49.78;101940.34;5015917;28;4350;-61
2022/08/08 06:35:24;;;;;;;;;;;;;;;21.75;49.79;101950.38;4998133;28;4173;-60
2022/08/08 06:38:10;;;;;;;;;;;;;;;21.75;49.63;101951.13;5016297;28;4088;-60
2022/08/08 06:40:42;;;;;;;;;;;;;;;21.73;49.72;101956.75;4987134;28;5431;-60
2022/08/08 06:43:14;;;;;;;;;;;;;;;21.73;50.02;101951.00;5002957;28;5503;-60
2022/08/08 06:45:50;;;;;;;;;;;;;;;21.73;49.75;101948.13;4990806;28;4220;-60
2022/08/08 06:48:17;;;;;;;;;;;;;;;21.74;50.13;101957.53;4998476;28;4232;-63
2022/08/08 06:50:43;;;;;;;;;;;;;;;21.74;49.78;101949.63;4988694;28;4056;-62
2022/08/08 06:53:12;;;;;;;;;;;;;;;21.73;49.99;101951.00;5000657;28;4160;-63
2022/08/08 06:55:48;;;;;;;;;;;;;;;21.75;50.05;101951.13;4990190;28;4296;-63
2022/08/08 06:58:31;;;;;;;;;;;;;;;21.75;49.90;101959.78;4998900;28;6281;-63
2022/08/08 07:01:01;;;;;;;;;;;;;;;21.75;49.74;101959.03;5005303;28;4244;-62
2022/08/08 07:04:06;;;;;;;;;;;;;;;21.75;49.87;101956.88;4999010;28;4132;-60
2022/08/08 07:06:58;;;;;;;;;;;;;;;21.74;49.98;101964.06;4999149;28;6105;-60
2022/08/08 07:09:37;;;;;;;;;;;;;;;21.74;49.75;101955.41;5014799;28;4162;-60
2022/08/08 07:12:27;;;;;;;;;;;;;;;21.76;49.80;101960.50;4996523;28;4287;-60
2022/08/08 07:15:00;;;;;;;;;;;;;;;21.75;49.90;101959.78;4999844;28;4230;-60
2022/08/08 07:17:30;;;;;;;;;;;;;;;21.77;49.79;101949.75;4981985;28;4178;-60
2022/08/08 07:20:19;;;;;;;;;;;;;;;21.77;49.73;101955.53;4982314;28;4198;-62
2022/08/08 07:22:52;;;;;;;;;;;;;;;21.77;49.65;101964.91;4999804;28;4284;-60
2022/08/08 07:25:18;;;;;;;;;;;;;;;21.79;49.85;101967.19;4998731;28;4253;-61
2022/08/08 07:27:46;;;;;;;;;;;;;;;21.78;49.90;101962.78;5014265;28;4242;-60
2022/08/08 07:30:32;;;;;;;;;;;;;;;21.78;49.74;101968.53;4997007;28;5406;-60
2022/08/08 07:32:59;;;;;;;;;;;;;;;21.80;49.94;101965.78;5000856;28;4235;-60
2022/08/08 07:35:27;;;;;;;;;;;;;;;21.78;49.73;101960.63;5001993;28;4094;-60
2022/08/08 07:37:56;;;;;;;;;;;;;;;21.79;49.84;101970.06;5014210;28;4144;-60
2022/08/08 07:40:48;;;;;;;;;;;;;;;21.79;49.89;101965.03;5013109;28;5467;-60
2022/08/08 07:43:20;;;;;;;;;;;;;;;21.80;49.68;101965.78;5004398;28;4877;-61
2022/08/08 07:46:05;;;;;;;;;;;;;;;21.80;49.79;101966.53;4996734;28;4219;-60
2022/08/08 07:48:54;;;;;;;;;;;;;;;21.81;49.80;101965.16;4998425;28;7060;-60
2022/08/08 07:51:21;;;;;;;;;;;;;;;21.83;49.67;101976.03;5002791;28;4329;-60
2022/08/08 07:54:20;;;;;;;;;;;;;;;21.82;49.69;101983.19;4998218;28;4243;-63
2022/08/08 07:57:02;;;;;;;;;;;;;;;21.83;49.84;101976.03;4998462;28;8073;-60
2022/08/08 07:59:40;;;;;;;;;;;;;;;21.83;49.84;101978.91;4997288;28;5429;-60
2022/08/08 08:02:09;;;;;;;;;;;;;;;21.83;49.92;101979.69;4983142;28;4187;-60
2022/08/08 08:04:56;;;;;;;;;;;;;;;21.84;49.76;101983.31;4983110;28;6123;-60
2022/08/08 08:07:24;;;;;;;;;;;;;;;21.84;49.58;101977.56;4995864;28;4189;-60
2022/08/08 08:09:57;;;;;;;;;;;;;;;21.85;49.69;101991.34;4998277;28;6308;-60
2022/08/08 08:12:25;;;;;;;;;;;;;;;21.84;49.73;101977.56;4996342;28;5177;-60
2022/08/08 08:15:08;;;;;;;;;;;;;;;21.84;49.84;101980.44;5013793;28;4247;-60
2022/08/08 08:17:41;;;;;;;;;;;;;;;21.83;49.92;101979.69;4987652;28;4128;-60
2022/08/08 08:20:16;;;;;;;;;;;;;;;21.83;49.93;101981.81;4996740;28;5465;-60
2022/08/08 08:22:43;;;;;;;;;;;;;;;21.84;49.98;101977.56;4987861;28;4187;-60
2022/08/08 08:25:13;;;;;;;;;;;;;;;21.83;49.76;101984.69;5004760;28;4211;-60
2022/08/08 08:27:48;;;;;;;;;;;;;;;21.83;49.84;101984.69;4998048;28;4098;-60
2022/08/08 08:30:15;;;;;;;;;;;;;;;21.84;49.77;101977.56;4997814;28;4565;-60
2022/08/08 08:32:43;;;;;;;;;;;;;;;21.83;49.74;101981.81;4998101;28;4478;-60
2022/08/08 08:35:19;;;;;;;;;;;;;;;21.84;49.73;101983.31;5010916;28;4572;-60
2022/08/08 08:37:57;;;;;;;;;;;;;;;21.84;49.59;101983.31;5013009;28;4246;-60
2022/08/08 08:40:45;;;;;;;;;;;;;;;21.83;49.88;101988.34;4996029;28;4508;-60
2022/08/08 08:43:17;;;;;;;;;;;;;;;21.83;49.60;101985.47;4987333;28;4648;-60
2022/08/08 08:45:45;;;;;;;;;;;;;;;21.84;49.63;101989.84;5003216;28;4647;-60
2022/08/08 08:48:11;;;;;;;;;;;;;;;21.83;49.60;101990.47;4984984;28;4213;-60
2022/08/08 08:50:48;;;;;;;;;;;;;;;21.83;49.73;101996.22;4997697;28;4678;-60
2022/08/08 08:53:17;;;;;;;;;;;;;;;21.83;49.56;101987.56;4998572;28;4263;-60
2022/08/08 08:56:09;;;;;;;;;;;;;;;21.84;49.55;101986.22;5000759;28;4029;-60
2022/08/08 08:58:43;;;;;;;;;;;;;;;21.83;49.67;101979.69;5000014;28;4501;-60
2022/08/08 09:01:19;;;;;;;;;;;;;;;21.84;49.49;101984.06;4998572;28;4532;-60
2022/08/08 09:03:50;;;;;;;;;;;;;;;21.85;49.70;101984.81;5000500;28;4313;-61
2022/08/08 09:06:31;;;;;;;;;;;;;;;21.84;49.69;101983.31;4985699;28;4213;-60
2022/08/08 09:09:09;;;;;;;;;;;;;;;21.84;49.66;101980.44;5001518;28;4483;-60
2022/08/08 09:12:02;;;;;;;;;;;;;;;21.84;49.46;101984.06;4999483;28;4564;-61
2022/08/08 09:14:35;;;;;;;;;;;;;;;21.83;49.73;101985.47;4999935;28;4458;-60
2022/08/08 09:17:08;;;;;;;;;;;;;;;21.83;49.49;101984.69;4990206;28;4497;-60
2022/08/08 09:19:43;;;;;;;;;;;;;;;21.85;49.45;101979.03;5005833;28;4232;-60
2022/08/08 09:22:30;;;;;;;;;;;;;;;21.85;49.54;101974.06;5001959;28;4214;-60
2022/08/08 09:24:57;;;;;;;;;;;;;;;21.84;49.22;101966.75;5001073;28;4146;-60
2022/08/08 09:27:24;;;;;;;;;;;;;;;21.86;49.00;101980.56;5016591;28;5319;-60
2022/08/08 09:30:13;;;;;;;;;;;;;;;21.87;48.99;101982.03;4991109;28;4125;-60
2022/08/08 09:32:47;;;;;;;;;;;;;;;21.87;49.05;101982.03;4998791;28;4327;-60
2022/08/08 09:35:34;;;;;;;;;;;;;;;21.87;48.79;101977.03;4999413;28;4240;-60
2022/08/08 09:38:03;;;;;;;;;;;;;;;21.88;48.80;101969.16;4999658;28;4152;-60
2022/08/08 09:40:34;;;;;;;;;;;;;;;21.86;48.60;101964.00;5004050;28;4202;-60
2022/08/08 09:43:24;;;;;;;;;;;;;;;21.86;48.72;101969.03;5000046;28;4199;-60
2022/08/08 09:46:10;;;;;;;;;;;;;;;21.88;48.57;101974.91;4998805;28;4261;-60
2022/08/08 09:48:50;;;;;;;;;;;;;;;21.88;48.93;101967.00;4999019;28;4199;-60
2022/08/08 09:51:17;;;;;;;;;;;;;;;21.88;48.64;101966.25;5001156;28;5216;-60
2022/08/08 09:53:48;;;;;;;;;;;;;;;21.87;48.59;101970.50;4997879;28;4244;-61
2022/08/08 09:56:34;;;;;;;;;;;;;;;21.88;48.86;101972.03;5000169;28;4172;-60
2022/08/08 09:59:07;;;;;;;;;;;;;;;21.88;48.59;101969.16;5000996;28;4031;-60
2022/08/08 10:01:53;;;;;;;;;;;;;;;21.89;48.78;101961.97;5010007;28;4256;-61
2022/08/08 10:04:27;;;;;;;;;;;;;;;21.88;48.95;101955.47;4998025;28;4212;-62
2022/08/08 10:07:13;;;;;;;;;;;;;;;21.89;48.73;101961.97;5000168;28;5278;-61
2022/08/08 10:09:42;;;;;;;;;;;;;;;21.89;48.72;101967.75;4999363;28;4232;-61
2022/08/08 10:12:30;;;;;;;;;;;;;;;21.87;48.99;101956.84;4998519;28;4186;-61
2022/08/08 10:15:17;;;;;;;;;;;;;;;21.88;49.02;101954.72;4996304;28;4227;-61
2022/08/08 10:17:47;;;;;;;;;;;;;;;21.89;49.12;101961.97;4998591;28;4304;-61
2022/08/08 10:20:43;;;;;;;;;;;;;;;21.88;48.91;101961.25;4999760;28;4175;-61
2022/08/08 10:23:31;;;;;;;;;;;;;;;21.89;48.96;101962.72;4999159;28;5292;-61
2022/08/08 10:26:26;;;;;;;;;;;;;;;21.89;49.04;101956.22;4998150;28;4148;-61
2022/08/08 10:29:04;;;;;;;;;;;;;;;21.89;48.82;101956.22;4999138;28;4366;-61
2022/08/08 10:34:17;;;;;;;;;;;;;;;21.88;48.92;101949.69;4998490;28;5220;-61
2022/08/08 10:36:46;;;;;;;;;;;;;;;21.89;49.07;101944.69;4999339;28;4230;-61
2022/08/08 10:39:16;;;;;;;;;;;;;;;21.89;49.13;101953.34;4998648;28;4179;-61
2022/08/08 10:41:43;;;;;;;;;;;;;;;21.89;49.14;101944.69;4998988;28;4205;-61
2022/08/08 10:44:36;;;;;;;;;;;;;;;21.91;48.93;101944.78;4998766;28;4382;-61
2022/08/08 10:47:13;;;;;;;;;;;;;;;21.90;49.00;101946.19;4966851;28;965269;-61
2022/08/08 10:49:40;;;;;;;;;;;;;;;21.90;49.08;101949.06;4998370;28;4422;-61
2022/08/08 10:52:28;;;;;;;;;;;;;;;21.90;49.09;101946.19;5000964;28;4286;-61
2022/08/08 10:55:00;;;;;;;;;;;;;;;21.90;48.87;101940.44;4999705;28;4218;-61
2022/08/08 10:57:44;;;;;;;;;;;;;;;21.90;49.00;101943.31;5001378;28;5283;-61
2022/08/08 11:00:25;;;;;;;;;;;;;;;21.90;48.95;101940.44;5000350;28;4203;-62
2022/08/08 11:02:52;;;;;;;;;;;;;;;21.90;48.88;101940.44;5000607;28;4212;-61
2022/08/08 11:05:18;;;;;;;;;;;;;;;21.89;48.94;101939.66;5005083;28;4178;-61
2022/08/08 11:07:51;;;;;;;;;;;;;;;21.90;49.13;101935.41;5001124;28;4210;-61
2022/08/08 11:10:37;;;;;;;;;;;;;;;21.89;49.10;101936.78;4998662;28;5257;-61
2022/08/08 11:13:06;;;;;;;;;;;;;;;21.91;48.65;101936.16;5000777;28;4166;-61
2022/08/08 11:15:53;;;;;;;;;;;;;;;21.90;48.83;101937.53;4999103;28;4584;-61
2022/08/08 11:18:26;;;;;;;;;;;;;;;21.91;48.99;101939.03;4998249;28;4371;-61
2022/08/08 11:20:55;;;;;;;;;;;;;;;21.92;48.81;101934.75;5000026;28;4230;-61
2022/08/08 11:23:23;;;;;;;;;;;;;;;21.93;49.00;101936.25;4999921;28;4159;-60
2022/08/08 11:25:56;;;;;;;;;;;;;;;21.92;48.85;101938.41;5000454;28;4178;-60
2022/08/08 11:28:24;;;;;;;;;;;;;;;21.93;48.71;101944.91;4997827;28;4212;-61
2022/08/08 11:30:56;;;;;;;;;;;;;;;21.93;48.83;101942.03;4998656;28;5284;-59
2022/08/08 11:33:25;;;;;;;;;;;;;;;21.94;48.99;101934.88;5000460;28;4194;-61
2022/08/08 11:36:13;;;;;;;;;;;;;;;21.95;49.12;101937.13;4998948;28;4176;-61
2022/08/08 11:38:42;;;;;;;;;;;;;;;21.95;48.90;101930.63;4998642;28;4219;-61
2022/08/08 11:41:20;;;;;;;;;;;;;;;21.95;48.65;101933.50;5003892;28;5298;-61
2022/08/08 11:43:46;;;;;;;;;;;;;;;21.94;48.80;101931.97;5004980;28;4220;-61
2022/08/08 11:46:14;;;;;;;;;;;;;;;21.95;48.95;101931.34;4997783;28;4114;-61
2022/08/08 11:48:43;;;;;;;;;;;;;;;21.96;48.80;101929.22;4999643;28;4418;-61
2022/08/08 11:51:12;;;;;;;;;;;;;;;21.96;48.91;101932.09;5000325;28;4202;-61
2022/08/08 11:53:56;;;;;;;;;;;;;;;21.96;49.12;101926.34;4998883;28;4379;-61
2022/08/08 11:56:30;;;;;;;;;;;;;;;21.97;49.06;101927.84;4998736;28;5236;-61
2022/08/08 11:59:06;;;;;;;;;;;;;;;21.97;48.78;101930.72;5000358;28;4269;-61
2022/08/08 12:01:34;;;;;;;;;;;;;;;21.98;49.12;101928.59;4997073;28;4220;-61
2022/08/08 12:04:02;;;;;;;;;;;;;;;21.97;49.03;101927.84;4997360;28;4240;-61
2022/08/08 12:06:28;;;;;;;;;;;;;;;21.98;49.00;101928.59;4998143;28;5260;-61
2022/08/08 12:09:05;;;;;;;;;;;;;;;21.99;48.95;101924.31;4999276;28;5318;-61
2022/08/08 12:11:36;;;;;;;;;;;;;;;21.99;49.11;101918.53;4999362;28;4043;-61
2022/08/08 12:14:03;;;;;;;;;;;;;;;21.98;49.25;101923.56;4997472;28;4436;-61
2022/08/08 12:16:30;;;;;;;;;;;;;;;21.99;48.90;101913.56;4991771;28;4186;-61
2022/08/08 12:19:11;;;;;;;;;;;;;;;22.00;48.85;101922.94;4991524;28;4247;-61
2022/08/08 12:21:39;;;;;;;;;;;;;;;22.00;48.97;101915.03;4996416;28;4158;-61
2022/08/08 12:24:25;;;;;;;;;;;;;;;22.00;48.78;101915.03;4999269;28;4259;-60
2022/08/08 12:26:53;;;;;;;;;;;;;;;22.00;49.06;101915.03;4998873;28;5294;-62
2022/08/08 12:29:34;;;;;;;;;;;;;;;22.02;49.05;101908.63;4999257;28;5277;-61
2022/08/08 12:32:10;;;;;;;;;;;;;;;22.02;48.90;101912.28;4997150;28;4296;-61
2022/08/08 12:34:58;;;;;;;;;;;;;;;22.02;48.98;101912.28;4998805;28;5624;-60
2022/08/08 12:37:38;;;;;;;;;;;;;;;22.03;49.01;101907.25;4999158;28;4068;-60
2022/08/08 12:40:14;;;;;;;;;;;;;;;22.03;48.89;101913.75;4995011;28;5494;-61
2022/08/08 12:42:49;;;;;;;;;;;;;;;22.03;49.10;101902.22;4997956;28;4261;-60
2022/08/08 12:45:15;;;;;;;;;;;;;;;22.04;48.88;101905.88;4995244;28;5297;-61
2022/08/08 12:48:02;;;;;;;;;;;;;;;22.03;49.16;101908.00;4996461;28;4238;-58
2022/08/08 12:50:44;;;;;;;;;;;;;;;22.03;49.20;101902.22;4997183;28;4164;-60
2022/08/08 12:53:22;;;;;;;;;;;;;;;22.03;49.17;101902.22;4996469;28;4163;-60
2022/08/08 12:56:00;;;;;;;;;;;;;;;22.02;48.99;101903.63;4996098;28;4283;-60
2022/08/08 12:58:51;;;;;;;;;;;;;;;22.02;49.23;101900.72;4999016;28;4161;-60
2022/08/08 13:01:19;;;;;;;;;;;;;;;22.03;49.00;101890.69;4998636;28;5479;-61
2022/08/08 13:03:59;;;;;;;;;;;;;;;22.03;49.15;101893.56;4998408;28;4341;-60
2022/08/08 13:06:26;;;;;;;;;;;;;;;22.02;49.28;101889.19;4997385;28;4233;-60
2022/08/08 13:08:52;;;;;;;;;;;;;;;22.03;49.19;101896.44;4998826;28;4434;-61
2022/08/08 13:11:25;;;;;;;;;;;;;;;22.04;48.98;101883.53;4998259;28;4215;-60
2022/08/08 13:14:14;;;;;;;;;;;;;;;22.05;49.33;101890.78;4996115;28;5342;-60
2022/08/08 13:16:40;;;;;;;;;;;;;;;22.05;49.25;101882.13;4998762;28;4165;-61
2022/08/08 13:19:14;;;;;;;;;;;;;;;22.06;49.64;101886.53;4999276;28;5451;-62
2022/08/08 13:21:45;;;;;;;;;;;;;;;22.09;49.74;101890.28;4998281;28;4210;-61
2022/08/08 13:24:23;;;;;;;;;;;;;;;22.09;49.90;101896.06;4998969;28;4235;-60
2022/08/08 13:27:10;;;;;;;;;;;;;;;22.08;50.32;101889.53;5002499;28;5301;-61
2022/08/08 13:29:53;;;;;;;;;;;;;;;22.11;50.87;101888.25;4997930;28;4171;-61
2022/08/08 13:32:20;;;;;;;;;;;;;;;22.16;50.81;101895.75;4998496;28;4205;-60
2022/08/08 13:34:55;;;;;;;;;;;;;;;22.14;50.54;101894.88;4998109;28;4207;-59
2022/08/08 13:37:22;;;;;;;;;;;;;;;22.14;50.94;101889.13;4998289;28;4187;-61
2022/08/08 13:40:08;;;;;;;;;;;;;;;22.14;50.79;101892.00;5002662;28;4066;-61
2022/08/08 13:42:35;;;;;;;;;;;;;;;22.13;51.16;101894.16;5001616;28;4202;-61
2022/08/08 13:45:01;;;;;;;;;;;;;;;22.15;50.96;101893.50;4999111;28;4206;-61
2022/08/08 13:47:29;;;;;;;;;;;;;;;22.15;51.27;101893.50;5001754;28;4220;-62
2022/08/08 13:49:56;;;;;;;;;;;;;;;22.15;51.72;101890.59;5002358;28;4144;-61
2022/08/08 13:52:46;;;;;;;;;;;;;;;22.16;52.08;101898.63;5003126;28;5321;-61
2022/08/08 13:55:13;;;;;;;;;;;;;;;22.17;52.05;101890.72;5002332;28;5497;-61